createdAt,value
2018-09-30T00:00:33.247Z,9.60
2018-09-30T00:03:01.800Z,9.70
2018-09-30T00:05:30.441Z,10.20
2018-09-30T00:07:58.971Z,9.97
2018-09-30T00:10:28.247Z,9.87
2018-09-30T00:12:56.756Z,9.13
2018-09-30T00:15:25.310Z,9.37
2018-09-30T00:17:53.964Z,9.63
2018-09-30T00:20:22.458Z,8.93
2018-09-30T00:22:51.006Z,8.63
2018-09-30T00:25:24.808Z,9.03
2018-09-30T00:27:53.377Z,8.53
2018-09-30T00:30:21.899Z,9.70
2018-09-30T00:32:50.789Z,9.07
2018-09-30T00:35:19.270Z,9.43
2018-09-30T00:37:47.768Z,9.03
2018-09-30T00:40:16.231Z,9.90
2018-09-30T00:42:44.767Z,10.17
2018-09-30T00:45:13.859Z,11.50
2018-09-30T00:47:42.453Z,12.58
2018-09-30T00:50:11.227Z,13.57
2018-09-30T00:52:39.799Z,13.93
2018-09-30T00:55:08.288Z,15.37
2018-09-30T00:57:36.796Z,15.97
2018-09-30T01:00:05.850Z,14.33
2018-09-30T01:02:34.383Z,12.97
2018-09-30T01:05:02.955Z,12.47
2018-09-30T01:07:31.528Z,11.17
2018-09-30T01:10:00.064Z,11.60
2018-09-30T01:12:28.611Z,10.57
2018-09-30T01:14:57.170Z,10.57
2018-09-30T01:17:25.676Z,10.67
2018-09-30T01:19:54.215Z,10.63
2018-09-30T01:22:22.849Z,12.40
2018-09-30T01:24:51.367Z,12.17
2018-09-30T01:27:19.887Z,11.10
2018-09-30T01:29:48.395Z,11.07
2018-09-30T01:32:16.928Z,11.83
2018-09-30T01:34:45.402Z,10.63
2018-09-30T01:37:13.973Z,10.03
2018-09-30T01:39:42.570Z,9.28
2018-09-30T01:42:11.112Z,8.67
2018-09-30T01:44:39.598Z,11.23
2018-09-30T01:47:08.109Z,9.20
2018-09-30T01:49:36.594Z,9.00
2018-09-30T01:52:16.249Z,8.27
2018-09-30T01:54:44.790Z,7.85
2018-09-30T01:57:13.300Z,7.47
2018-09-30T01:59:41.803Z,8.10
2018-09-30T02:02:10.335Z,7.60
2018-09-30T02:04:38.908Z,6.77
2018-09-30T02:07:07.462Z,6.97
2018-09-30T02:09:36.042Z,6.60
2018-09-30T02:12:04.534Z,7.93
2018-09-30T02:14:33.056Z,9.23
2018-09-30T02:17:01.567Z,9.27
2018-09-30T02:19:30.213Z,11.10
2018-09-30T02:21:58.706Z,10.17
2018-09-30T02:24:27.344Z,10.73
2018-09-30T02:26:55.820Z,10.60
2018-09-30T02:29:24.329Z,10.37
2018-09-30T02:31:52.813Z,10.40
2018-09-30T02:34:21.389Z,10.43
2018-09-30T02:36:49.949Z,10.20
2018-09-30T02:39:18.538Z,9.50
2018-09-30T02:41:47.052Z,9.73
2018-09-30T02:44:16.109Z,9.33
2018-09-30T02:46:44.614Z,9.20
2018-09-30T02:49:13.177Z,8.90
2018-09-30T02:51:41.730Z,9.27
2018-09-30T02:54:10.281Z,8.70
2018-09-30T02:56:38.774Z,9.50
2018-09-30T02:59:07.345Z,9.80
2018-09-30T03:01:35.873Z,9.33
2018-09-30T03:04:04.394Z,9.40
2018-09-30T03:06:38.225Z,9.73
2018-09-30T03:09:18.067Z,9.00
2018-09-30T03:11:46.621Z,10.33
2018-09-30T03:14:16.115Z,10.23
2018-09-30T03:16:45.582Z,10.30
2018-09-30T03:19:14.531Z,10.57
2018-09-30T03:21:43.140Z,10.20
2018-09-30T03:24:12.290Z,9.67
2018-09-30T03:26:41.585Z,10.13
2018-09-30T03:29:10.118Z,10.30
2018-09-30T03:31:38.614Z,9.63
2018-09-30T03:34:07.551Z,9.80
2018-09-30T03:36:36.100Z,9.47
2018-09-30T03:39:05.449Z,9.63
2018-09-30T03:41:33.929Z,10.07
2018-09-30T03:44:02.519Z,10.63
2018-09-30T03:46:31.137Z,9.17
2018-09-30T03:48:59.658Z,10.20
2018-09-30T03:51:28.194Z,9.60
2018-09-30T03:53:57.719Z,9.80
2018-09-30T03:56:26.241Z,10.50
2018-09-30T03:58:54.741Z,10.00
2018-09-30T04:01:23.225Z,9.40
2018-09-30T04:03:51.775Z,9.73
2018-09-30T04:06:20.247Z,9.47
2018-09-30T04:08:48.748Z,9.40
2018-09-30T04:11:17.255Z,9.43
2018-09-30T04:13:45.757Z,9.60
2018-09-30T04:16:14.289Z,9.47
2018-09-30T04:18:42.807Z,10.23
2018-09-30T04:21:11.408Z,9.73
2018-09-30T04:23:39.906Z,10.13
2018-09-30T04:26:09.371Z,11.13
2018-09-30T04:28:37.863Z,10.47
2018-09-30T04:31:06.493Z,10.50
2018-09-30T04:33:35.020Z,10.60
2018-09-30T04:36:03.630Z,10.40
2018-09-30T04:38:32.173Z,10.47
2018-09-30T04:41:00.681Z,10.70
2018-09-30T04:43:29.177Z,10.83
2018-09-30T04:45:58.561Z,10.43
2018-09-30T04:48:27.045Z,11.27
2018-09-30T04:50:56.220Z,11.20
2018-09-30T04:53:24.765Z,11.37
2018-09-30T04:55:53.270Z,11.63
2018-09-30T04:58:21.808Z,12.53
2018-09-30T05:00:50.359Z,12.07
2018-09-30T05:03:18.870Z,12.10
2018-09-30T05:05:47.377Z,11.47
2018-09-30T05:08:17.056Z,11.23
2018-09-30T05:10:46.271Z,11.83
2018-09-30T05:13:14.832Z,10.03
2018-09-30T05:15:43.323Z,10.50
2018-09-30T05:18:11.819Z,11.17
2018-09-30T05:20:40.372Z,11.80
2018-09-30T05:23:08.878Z,9.97
2018-09-30T05:25:37.440Z,9.83
2018-09-30T05:28:07.210Z,10.87
2018-09-30T05:30:35.760Z,9.40
2018-09-30T05:33:05.248Z,9.83
2018-09-30T05:35:33.758Z,10.10
2018-09-30T05:38:02.312Z,9.00
2018-09-30T05:40:30.839Z,10.23
2018-09-30T05:42:59.364Z,9.97
2018-09-30T05:45:27.932Z,10.30
2018-09-30T05:47:56.502Z,9.87
2018-09-30T05:50:24.981Z,10.57
2018-09-30T05:52:53.559Z,10.13
2018-09-30T05:55:22.119Z,10.10
2018-09-30T05:57:50.723Z,9.10
2018-09-30T06:00:19.226Z,10.30
2018-09-30T06:02:47.788Z,9.83
2018-09-30T06:05:16.328Z,9.53
2018-09-30T06:07:45.131Z,11.00
2018-09-30T06:10:13.598Z,9.70
2018-09-30T06:12:42.134Z,9.18
2018-09-30T06:15:10.642Z,9.37
2018-09-30T06:17:39.198Z,8.97
2018-09-30T06:20:08.114Z,8.93
2018-09-30T06:22:36.637Z,9.00
2018-09-30T06:25:05.191Z,8.30
2018-09-30T06:27:35.394Z,7.60
2018-09-30T06:30:03.897Z,7.83
2018-09-30T06:32:32.387Z,7.37
2018-09-30T06:35:00.926Z,7.73
2018-09-30T06:37:29.478Z,7.73
2018-09-30T06:39:58.034Z,8.23
2018-09-30T06:42:26.514Z,8.07
2018-09-30T06:44:55.157Z,7.45
2018-09-30T06:47:24.186Z,7.47
2018-09-30T06:49:52.782Z,7.63
2018-09-30T06:52:21.322Z,8.07
2018-09-30T06:54:49.907Z,7.83
2018-09-30T06:57:18.424Z,7.30
2018-09-30T06:59:47.262Z,7.50
2018-09-30T07:02:16.366Z,7.35
2018-09-30T07:04:44.893Z,7.42
2018-09-30T07:07:13.357Z,6.62
2018-09-30T07:09:42.104Z,6.85
2018-09-30T07:12:10.610Z,6.60
2018-09-30T07:14:39.136Z,7.17
2018-09-30T07:17:07.875Z,6.67
2018-09-30T07:19:36.486Z,6.37
2018-09-30T07:22:05.009Z,7.22
2018-09-30T07:24:33.611Z,6.50
2018-09-30T07:27:02.126Z,5.80
2018-09-30T07:29:30.674Z,5.50
2018-09-30T07:31:59.216Z,6.20
2018-09-30T07:34:27.707Z,5.37
2018-09-30T07:36:56.210Z,6.03
2018-09-30T07:39:24.763Z,5.60
2018-09-30T07:41:53.277Z,5.87
2018-09-30T07:44:21.841Z,5.17
2018-09-30T07:46:50.471Z,5.08
2018-09-30T07:49:19.208Z,4.80
2018-09-30T07:51:48.245Z,5.72
2018-09-30T07:54:16.813Z,5.08
2018-09-30T07:56:45.361Z,5.03
2018-09-30T07:59:13.836Z,4.92
2018-09-30T08:01:42.401Z,5.10
2018-09-30T08:04:10.958Z,4.58
2018-09-30T08:06:39.639Z,4.67
2018-09-30T08:09:08.972Z,4.30
2018-09-30T08:11:37.593Z,4.65
2018-09-30T08:14:06.160Z,4.22
2018-09-30T08:16:34.742Z,4.30
2018-09-30T08:19:03.305Z,4.10
2018-09-30T08:21:31.947Z,4.55
2018-09-30T08:24:00.643Z,4.70
2018-09-30T08:26:29.105Z,4.90
2018-09-30T08:28:57.718Z,4.83
2018-09-30T08:31:26.237Z,5.00
2018-09-30T08:33:55.608Z,4.53
2018-09-30T08:36:24.127Z,4.15
2018-09-30T08:38:52.682Z,4.00
2018-09-30T08:41:21.342Z,4.35
2018-09-30T08:43:49.963Z,4.47
2018-09-30T08:46:18.627Z,4.28
2018-09-30T08:48:47.546Z,4.37
2018-09-30T08:51:16.084Z,4.08
2018-09-30T08:53:44.662Z,4.85
2018-09-30T08:56:13.140Z,4.35
2018-09-30T08:58:41.626Z,3.95
2018-09-30T09:01:10.164Z,3.75
2018-09-30T09:03:38.677Z,4.03
2018-09-30T09:06:07.312Z,3.98
2018-09-30T09:08:35.844Z,4.83
2018-09-30T09:11:04.362Z,4.47
2018-09-30T09:13:32.876Z,4.08
2018-09-30T09:16:02.072Z,4.20
2018-09-30T09:18:30.617Z,4.17
2018-09-30T09:20:59.251Z,4.53
2018-09-30T09:23:28.634Z,4.25
2018-09-30T09:25:57.145Z,4.33
2018-09-30T09:28:25.709Z,4.33
2018-09-30T09:30:54.267Z,4.10
2018-09-30T09:33:22.865Z,3.62
2018-09-30T09:35:51.388Z,4.22
2018-09-30T09:38:19.968Z,4.10
2018-09-30T09:40:48.528Z,3.65
2018-09-30T09:43:17.032Z,3.98
2018-09-30T09:45:45.596Z,4.00
2018-09-30T09:48:14.124Z,3.85
2018-09-30T09:50:42.711Z,3.85
2018-09-30T09:53:11.250Z,3.65
2018-09-30T09:55:39.838Z,3.95
2018-09-30T09:58:08.317Z,3.52
2018-09-30T10:00:42.109Z,4.20
2018-09-30T10:03:10.648Z,3.95
2018-09-30T10:05:39.194Z,3.52
2018-09-30T10:08:07.794Z,4.15
2018-09-30T10:10:36.648Z,3.77
2018-09-30T10:13:05.192Z,4.05
2018-09-30T10:15:33.763Z,3.95
2018-09-30T10:18:02.317Z,4.03
2018-09-30T10:20:30.809Z,4.42
2018-09-30T10:22:59.357Z,4.33
2018-09-30T10:25:27.918Z,3.83
2018-09-30T10:27:56.504Z,3.87
2018-09-30T10:30:25.060Z,3.90
2018-09-30T10:32:53.633Z,3.85
2018-09-30T10:35:22.146Z,3.60
2018-09-30T10:37:50.674Z,3.65
2018-09-30T10:40:19.203Z,3.60
2018-09-30T10:42:47.737Z,3.22
2018-09-30T10:45:16.570Z,3.30
2018-09-30T10:47:45.153Z,3.00
2018-09-30T10:50:13.734Z,3.75
2018-09-30T10:52:42.267Z,4.30
2018-09-30T10:55:10.833Z,3.58
2018-09-30T10:57:39.345Z,3.30
2018-09-30T11:00:07.855Z,3.33
2018-09-30T11:02:36.392Z,3.60
2018-09-30T11:05:05.635Z,3.20
2018-09-30T11:07:34.293Z,3.10
2018-09-30T11:10:02.911Z,3.22
2018-09-30T11:12:31.471Z,2.83
2018-09-30T11:15:00.052Z,2.60
2018-09-30T11:17:29.741Z,2.70
2018-09-30T11:19:58.283Z,2.67
2018-09-30T11:22:27.738Z,3.12
2018-09-30T11:24:56.157Z,2.80
2018-09-30T11:27:24.892Z,2.80
2018-09-30T11:29:53.444Z,2.75
2018-09-30T11:32:22.006Z,2.95
2018-09-30T11:34:50.558Z,3.27
2018-09-30T11:37:19.108Z,2.90
2018-09-30T11:39:47.667Z,3.58
2018-09-30T11:42:16.167Z,3.47
2018-09-30T11:44:44.709Z,2.85
2018-09-30T11:47:13.228Z,2.83
2018-09-30T11:49:41.832Z,2.67
2018-09-30T11:52:10.427Z,2.70
2018-09-30T11:54:38.963Z,2.65
2018-09-30T11:57:07.446Z,2.70
2018-09-30T11:59:35.970Z,2.55
2018-09-30T12:02:04.570Z,2.60
2018-09-30T12:04:33.102Z,2.60
2018-09-30T12:07:01.643Z,2.92
2018-09-30T12:09:30.130Z,2.50
2018-09-30T12:11:59.590Z,2.85
2018-09-30T12:14:28.199Z,2.50
2018-09-30T12:16:56.686Z,2.80
2018-09-30T12:19:25.183Z,2.62
2018-09-30T12:21:53.690Z,2.50
2018-09-30T12:24:22.200Z,2.47
2018-09-30T12:26:50.726Z,2.37
2018-09-30T12:29:19.232Z,2.45
2018-09-30T12:31:48.457Z,2.72
2018-09-30T12:34:16.969Z,2.50
2018-09-30T12:36:45.450Z,2.55
2018-09-30T12:39:14.025Z,2.77
2018-09-30T12:41:42.554Z,2.60
2018-09-30T12:44:11.157Z,2.20
2018-09-30T12:46:39.678Z,2.80
2018-09-30T12:49:08.270Z,2.80
2018-09-30T12:51:36.807Z,3.02
2018-09-30T12:54:05.324Z,2.62
2018-09-30T12:56:33.891Z,2.67
2018-09-30T12:59:02.391Z,3.00
2018-09-30T13:01:30.966Z,3.25
2018-09-30T13:03:59.626Z,3.27
2018-09-30T13:06:28.157Z,2.98
2018-09-30T13:08:56.763Z,3.15
2018-09-30T13:11:25.802Z,2.80
2018-09-30T13:13:54.366Z,2.75
2018-09-30T13:16:23.650Z,3.45
2018-09-30T13:18:52.195Z,3.30
2018-09-30T13:21:20.700Z,3.15
2018-09-30T13:23:49.240Z,3.35
2018-09-30T13:26:17.745Z,3.22
2018-09-30T13:28:46.497Z,3.35
2018-09-30T13:31:15.052Z,3.00
2018-09-30T13:33:43.609Z,3.35
2018-09-30T13:36:12.159Z,3.42
2018-09-30T13:38:40.702Z,3.65
2018-09-30T13:41:09.560Z,3.95
2018-09-30T13:43:37.971Z,3.83
2018-09-30T13:46:06.654Z,3.85
2018-09-30T13:48:35.190Z,4.42
2018-09-30T13:51:03.784Z,4.30
2018-09-30T13:53:32.390Z,4.30
2018-09-30T13:56:00.948Z,3.75
2018-09-30T13:58:30.164Z,3.62
2018-09-30T14:00:58.654Z,3.90
2018-09-30T14:03:27.223Z,3.87
2018-09-30T14:05:55.823Z,4.00
2018-09-30T14:08:24.358Z,3.80
2018-09-30T14:10:52.890Z,4.55
2018-09-30T14:13:22.626Z,4.60
2018-09-30T14:15:51.142Z,3.80
2018-09-30T14:18:19.638Z,4.10
2018-09-30T14:20:48.139Z,4.75
2018-09-30T14:23:16.676Z,4.47
2018-09-30T14:25:45.257Z,4.05
2018-09-30T14:28:13.813Z,4.33
2018-09-30T14:30:42.364Z,3.87
2018-09-30T14:33:11.669Z,4.10
2018-09-30T14:35:40.211Z,4.03
2018-09-30T14:38:08.722Z,3.67
2018-09-30T14:40:37.247Z,3.77
2018-09-30T14:43:05.778Z,4.10
2018-09-30T14:45:34.328Z,4.95
2018-09-30T14:48:02.879Z,4.58
2018-09-30T14:50:31.933Z,4.50
2018-09-30T14:53:00.461Z,4.05
2018-09-30T14:55:29.430Z,4.37
2018-09-30T14:57:58.558Z,4.00
2018-09-30T15:00:27.110Z,4.78
2018-09-30T15:02:56.239Z,4.20
2018-09-30T15:05:24.761Z,4.67
2018-09-30T15:07:53.357Z,4.75
2018-09-30T15:10:21.930Z,4.33
2018-09-30T15:12:50.449Z,3.85
2018-09-30T15:15:18.938Z,4.03
2018-09-30T15:17:47.471Z,3.62
2018-09-30T15:20:16.004Z,4.10
2018-09-30T15:22:44.520Z,3.80
2018-09-30T15:25:13.066Z,3.75
2018-09-30T15:27:41.608Z,3.60
2018-09-30T15:30:10.093Z,3.65
2018-09-30T15:32:38.630Z,4.00
2018-09-30T15:35:07.151Z,3.42
2018-09-30T15:37:35.697Z,3.55
2018-09-30T15:40:04.201Z,3.80
2018-09-30T15:42:32.795Z,4.40
2018-09-30T15:45:01.293Z,4.15
2018-09-30T15:47:29.769Z,4.10
2018-09-30T15:49:58.530Z,5.25
2018-09-30T15:52:27.353Z,4.70
2018-09-30T15:54:55.911Z,4.53
2018-09-30T15:57:24.436Z,5.17
2018-09-30T15:59:52.956Z,4.92
2018-09-30T16:02:21.495Z,5.25
2018-09-30T16:04:49.996Z,5.15
2018-09-30T16:07:18.543Z,5.72
2018-09-30T16:09:47.063Z,5.50
2018-09-30T16:12:15.601Z,5.90
2018-09-30T16:14:44.134Z,5.85
2018-09-30T16:17:12.641Z,5.42
2018-09-30T16:19:41.169Z,6.08
2018-09-30T16:22:09.701Z,6.37
2018-09-30T16:24:38.221Z,6.80
2018-09-30T16:27:06.747Z,5.70
2018-09-30T16:29:35.253Z,6.78
2018-09-30T16:32:03.812Z,5.83
2018-09-30T16:34:32.333Z,5.97
2018-09-30T16:37:00.902Z,6.97
2018-09-30T16:39:29.425Z,6.50
2018-09-30T16:41:57.951Z,7.03
2018-09-30T16:44:26.502Z,7.20
2018-09-30T16:46:55.001Z,7.12
2018-09-30T16:49:23.507Z,7.30
2018-09-30T16:51:52.063Z,8.00
2018-09-30T16:54:20.663Z,7.90
2018-09-30T16:56:49.188Z,7.62
2018-09-30T16:59:17.707Z,6.83
2018-09-30T17:01:46.215Z,7.22
2018-09-30T17:04:14.785Z,8.00
2018-09-30T17:06:43.368Z,7.28
2018-09-30T17:09:11.856Z,8.18
2018-09-30T17:11:40.361Z,8.00
2018-09-30T17:14:08.959Z,8.05
2018-09-30T17:16:37.488Z,7.47
2018-09-30T17:19:06.562Z,7.62
2018-09-30T17:21:35.071Z,6.97
2018-09-30T17:24:03.601Z,7.87
2018-09-30T17:26:32.153Z,8.45
2018-09-30T17:29:00.702Z,7.22
2018-09-30T17:31:29.234Z,7.53
2018-09-30T17:33:57.740Z,7.67
2018-09-30T17:36:26.259Z,7.80
2018-09-30T17:38:55.537Z,7.72
2018-09-30T17:41:24.045Z,7.55
2018-09-30T17:43:52.608Z,7.72
2018-09-30T17:46:21.082Z,7.75
2018-09-30T17:48:49.644Z,8.28
2018-09-30T17:51:18.144Z,8.30
2018-09-30T17:53:47.197Z,8.20
2018-09-30T17:56:15.694Z,8.10
2018-09-30T17:58:44.368Z,7.67
2018-09-30T18:01:12.909Z,7.78
2018-09-30T18:03:42.075Z,7.92
2018-09-30T18:06:10.613Z,8.38
2018-09-30T18:08:39.122Z,7.78
2018-09-30T18:11:08.225Z,8.18
2018-09-30T18:13:36.725Z,8.83
2018-09-30T18:16:05.269Z,9.45
2018-09-30T18:18:33.921Z,10.43
2018-09-30T18:21:02.642Z,9.63
2018-09-30T18:23:31.511Z,10.10
2018-09-30T18:26:00.367Z,10.00
2018-09-30T18:28:29.209Z,9.83
2018-09-30T18:30:57.979Z,8.90
2018-09-30T18:33:26.566Z,9.98
2018-09-30T18:35:55.141Z,9.60
2018-09-30T18:38:23.679Z,9.93
2018-09-30T18:40:52.355Z,9.00
2018-09-30T18:43:21.321Z,9.38
2018-09-30T18:45:50.137Z,8.65
2018-09-30T18:48:18.996Z,10.45
2018-09-30T18:50:47.884Z,10.65
2018-09-30T18:53:16.860Z,9.70
2018-09-30T18:55:45.670Z,9.50
2018-09-30T18:58:14.519Z,8.60
2018-09-30T19:00:43.379Z,9.68
2018-09-30T19:03:12.801Z,9.93
2018-09-30T19:05:41.645Z,8.95
2018-09-30T19:08:10.510Z,8.33
2018-09-30T19:10:39.361Z,10.30
2018-09-30T19:13:08.174Z,9.50
2018-09-30T19:15:37.009Z,9.95
2018-09-30T19:18:05.836Z,8.85
2018-09-30T19:20:34.664Z,9.15
2018-09-30T19:23:03.557Z,9.35
2018-09-30T19:25:32.170Z,9.45
2018-09-30T19:28:00.745Z,9.55
2018-09-30T19:30:29.279Z,9.35
2018-09-30T19:32:57.840Z,10.05
2018-09-30T19:35:26.356Z,9.35
2018-09-30T19:37:54.880Z,10.25
2018-09-30T19:40:24.164Z,9.85
2018-09-30T19:42:52.717Z,10.20
2018-09-30T19:45:21.261Z,9.50
2018-09-30T19:47:49.773Z,10.23
2018-09-30T19:50:18.373Z,10.03
2018-09-30T19:52:46.892Z,9.70
2018-09-30T19:55:15.531Z,10.50
2018-09-30T19:57:44.056Z,9.68
2018-09-30T20:00:12.609Z,9.70
2018-09-30T20:02:41.149Z,10.10
2018-09-30T20:05:09.716Z,10.40
2018-09-30T20:07:38.312Z,10.13
2018-09-30T20:10:06.872Z,10.30
2018-09-30T20:12:35.377Z,9.68
2018-09-30T20:15:04.007Z,9.78
2018-09-30T20:17:32.498Z,9.40
2018-09-30T20:20:01.148Z,10.30
2018-09-30T20:22:29.688Z,9.63
2018-09-30T20:24:58.303Z,9.38
2018-09-30T20:27:26.743Z,10.50
2018-09-30T20:29:55.269Z,10.43
2018-09-30T20:32:23.906Z,10.63
2018-09-30T20:34:52.430Z,10.23
2018-09-30T20:37:21.144Z,10.08
2018-09-30T20:39:49.706Z,9.48
2018-09-30T20:42:18.195Z,9.50
2018-09-30T20:44:46.696Z,10.32
2018-09-30T20:47:15.242Z,10.10
2018-09-30T20:49:43.785Z,10.78
2018-09-30T20:52:12.336Z,9.75
2018-09-30T20:54:40.922Z,10.18
2018-09-30T20:57:09.492Z,11.18
2018-09-30T20:59:38.102Z,10.13
2018-09-30T21:02:07.012Z,9.90
2018-09-30T21:04:35.512Z,9.90
2018-09-30T21:07:04.131Z,10.00
2018-09-30T21:09:32.656Z,9.95
2018-09-30T21:12:01.183Z,9.70
2018-09-30T21:14:29.723Z,9.85
2018-09-30T21:16:58.255Z,11.00
2018-09-30T21:19:26.773Z,10.55
2018-09-30T21:21:55.317Z,10.38
2018-09-30T21:24:23.982Z,10.35
2018-09-30T21:26:52.490Z,9.78
2018-09-30T21:29:21.035Z,10.98
2018-09-30T21:31:49.571Z,11.00
2018-09-30T21:34:18.727Z,10.05
2018-09-30T21:36:47.229Z,10.80
2018-09-30T21:39:15.788Z,10.95
2018-09-30T21:41:44.367Z,10.88
2018-09-30T21:44:12.981Z,11.28
2018-09-30T21:46:41.617Z,11.05
2018-09-30T21:49:10.723Z,10.82
2018-09-30T21:51:39.172Z,11.25
2018-09-30T21:54:07.687Z,11.12
2018-09-30T21:56:36.215Z,10.72
2018-09-30T21:59:04.691Z,11.28
2018-09-30T22:01:33.223Z,11.85
2018-09-30T22:04:01.761Z,10.95
2018-09-30T22:06:30.303Z,10.82
2018-09-30T22:08:58.819Z,10.95
2018-09-30T22:11:27.372Z,10.95
2018-09-30T22:13:55.879Z,11.35
2018-09-30T22:16:24.434Z,10.72
2018-09-30T22:18:52.946Z,10.85
2018-09-30T22:21:21.470Z,11.30
2018-09-30T22:23:50.007Z,11.20
2018-09-30T22:26:18.571Z,11.68
2018-09-30T22:28:47.068Z,11.35
2018-09-30T22:31:15.773Z,11.38
2018-09-30T22:33:44.377Z,11.03
2018-09-30T22:36:12.910Z,10.72
2018-09-30T22:38:41.439Z,10.18
2018-09-30T22:41:09.953Z,10.50
2018-09-30T22:43:38.452Z,10.15
2018-09-30T22:46:07.019Z,10.45
2018-09-30T22:48:35.575Z,10.45
2018-09-30T22:51:04.145Z,10.63
2018-09-30T22:53:32.804Z,10.80
2018-09-30T22:56:01.331Z,9.88
2018-09-30T22:58:29.891Z,9.28
2018-09-30T23:00:58.421Z,10.32
2018-09-30T23:03:27.114Z,10.32
2018-09-30T23:05:55.629Z,10.30
2018-09-30T23:08:24.499Z,10.25
2018-09-30T23:10:53.049Z,9.68
2018-09-30T23:13:21.552Z,9.38
2018-09-30T23:15:50.071Z,10.25
2018-09-30T23:18:18.590Z,10.13
2018-09-30T23:20:47.123Z,9.58
2018-09-30T23:23:15.673Z,9.58
2018-09-30T23:25:44.283Z,9.35
2018-09-30T23:28:12.914Z,8.45
2018-09-30T23:30:41.424Z,8.60
2018-09-30T23:33:09.955Z,7.90
2018-09-30T23:35:38.488Z,8.30
2018-09-30T23:38:07.013Z,8.20
2018-09-30T23:40:35.553Z,7.55
2018-09-30T23:43:04.078Z,7.55
2018-09-30T23:45:32.565Z,7.20
2018-09-30T23:48:01.132Z,7.70
2018-09-30T23:50:29.682Z,7.10
2018-09-30T23:52:58.243Z,6.95
2018-09-30T23:55:26.771Z,6.85
2018-09-30T23:58:11.954Z,6.65
